Wetterdaten: aktuell Dienstag, 22.06.2021 08:50
Datum Zeit Temp. A. Feuchte A. Luftdruck Regen Wind Richtung Richtung Taupunkt Windchill Windben Empfang
22.06.2021 08:50 12,7 C 94 % 1016,3 hPa 0,0 l/m 4,9 km/h (1 Bft) N 350 11,8 C 12,7 C 19,6 km/h (3 Bft) 100 %
22.06.2021 08:40 12,3 C 95 % 1016,2 hPa 0,2 l/m 3,9 km/h (1 Bft) N 9 11,5 C 12,3 C 10,9 km/h (2 Bft) 99 %
22.06.2021 08:30 12,1 C 95 % 1016,1 hPa 0,0 l/m 3,6 km/h (1 Bft) N-NO 23 11,3 C 12,1 C 8,7 km/h (2 Bft) 98 %
22.06.2021 08:20 12,0 C 96 % 1015,9 hPa 0,0 l/m 3,9 km/h (1 Bft) N-NO 12 11,4 C 12,0 C 10,9 km/h (2 Bft) 99 %
22.06.2021 08:10 12,0 C 96 % 1015,9 hPa 0,0 l/m 2,0 km/h (1 Bft) N-NW 340 11,4 C 12,0 C 6,5 km/h (2 Bft) 99 %
22.06.2021 08:00 11,9 C 96 % 1015,8 hPa 0,2 l/m 2,0 km/h (1 Bft) W-NW 297 11,3 C 11,9 C 6,5 km/h (2 Bft) 99 %
22.06.2021 07:50 11,8 C 96 % 1015,7 hPa 0,0 l/m 2,7 km/h (1 Bft) N 350 11,2 C 11,8 C 8,7 km/h (2 Bft) 100 %
22.06.2021 07:40 11,7 C 96 % 1015,8 hPa 0,0 l/m 2,2 km/h (1 Bft) W-NW 302 11,1 C 11,7 C 6,5 km/h (2 Bft) 100 %
22.06.2021 07:30 11,6 C 96 % 1015,8 hPa 0,0 l/m 2,4 km/h (1 Bft) W-NW 302 11,0 C 11,6 C 8,7 km/h (2 Bft) 99 %
22.06.2021 07:20 11,6 C 96 % 1015,8 hPa 0,0 l/m 3,3 km/h (1 Bft) NW 323 11,0 C 11,6 C 10,9 km/h (2 Bft) 100 %
22.06.2021 07:10 11,6 C 96 % 1015,7 hPa 0,2 l/m 3,4 km/h (1 Bft) W-NW 300 11,0 C 11,6 C 8,7 km/h (2 Bft) 99 %
22.06.2021 07:00 11,6 C 96 % 1015,8 hPa 0,0 l/m 2,7 km/h (1 Bft) NW 317 11,0 C 11,6 C 10,9 km/h (2 Bft) 100 %
22.06.2021 06:50 11,6 C 96 % 1015,8 hPa 0,0 l/m 2,3 km/h (1 Bft) NW 318 11,0 C 11,6 C 6,5 km/h (2 Bft) 99 %
22.06.2021 06:40 11,6 C 96 % 1016,0 hPa 0,0 l/m 2,4 km/h (1 Bft) N-NW 331 11,0 C 11,6 C 8,7 km/h (2 Bft) 99 %
22.06.2021 06:30 11,6 C 96 % 1016,2 hPa 0,2 l/m 0,2 km/h (0 Bft) W 273 11,0 C 11,6 C 4,3 km/h (1 Bft) 100 %
22.06.2021 06:20 11,4 C 97 % 1016,2 hPa 0,0 l/m 0,0 km/h (0 Bft) W 273 10,9 C 11,4 C 0,0 km/h (0 Bft) 99 %
22.06.2021 06:10 11,3 C 96 % 1015,9 hPa 0,0 l/m 0,0 km/h (0 Bft) W 273 10,7 C 11,3 C 0,0 km/h (0 Bft) 99 %
22.06.2021 06:00 11,2 C 96 % 1016,0 hPa 0,0 l/m 0,0 km/h (0 Bft) W 273 10,6 C 11,2 C 0,0 km/h (0 Bft) 100 %
22.06.2021 05:50 11,1 C 96 % 1016,0 hPa 0,2 l/m 0,0 km/h (0 Bft) W 273 10,5 C 11,1 C 0,0 km/h (0 Bft) 99 %
22.06.2021 05:40 11,1 C 96 % 1015,9 hPa 0,0 l/m 0,0 km/h (0 Bft) W 273 10,5 C 11,1 C 0,0 km/h (0 Bft) 99 %
22.06.2021 05:30 11,1 C 96 % 1015,7 hPa 0,0 l/m 0,0 km/h (0 Bft) W 273 10,5 C 11,1 C 0,0 km/h (0 Bft) 100 %
22.06.2021 05:20 11,2 C 96 % 1015,4 hPa 0,0 l/m 0,0 km/h (0 Bft) W 273 10,6 C 11,2 C 2,2 km/h (1 Bft) 99 %
22.06.2021 05:10 11,3 C 96 % 1015,2 hPa 0,2 l/m 0,2 km/h (0 Bft) W 273 10,7 C 11,3 C 2,2 km/h (1 Bft) 99 %
22.06.2021 05:00 11,4 C 96 % 1015,4 hPa 0,0 l/m 0,2 km/h (0 Bft) W 273 10,8 C 11,4 C 2,2 km/h (1 Bft) 100 %
22.06.2021 04:50 11,6 C 96 % 1015,2 hPa 0,2 l/m 0,3 km/h (0 Bft) W 273 11,0 C 11,6 C 4,3 km/h (1 Bft) 100 %
22.06.2021 04:40 11,7 C 96 % 1014,9 hPa 0,0 l/m 0,6 km/h (0 Bft) W 273 11,1 C 11,7 C 4,3 km/h (1 Bft) 99 %
22.06.2021 04:30 11,7 C 96 % 1014,9 hPa 0,0 l/m 0,6 km/h (0 Bft) W 273 11,1 C 11,7 C 4,3 km/h (1 Bft) 100 %
22.06.2021 04:20 11,7 C 96 % 1014,8 hPa 0,0 l/m 1,3 km/h (1 Bft) W 273 11,1 C 11,7 C 6,5 km/h (2 Bft) 99 %
22.06.2021 04:10 11,7 C 96 % 1015,1 hPa 0,2 l/m 0,7 km/h (0 Bft) W 273 11,1 C 11,7 C 6,5 km/h (2 Bft) 99 %
22.06.2021 04:00 11,6 C 96 % 1015,0 hPa 0,0 l/m 1,7 km/h (1 Bft) W 271 11,0 C 11,6 C 6,5 km/h (2 Bft) 99 %
22.06.2021 03:50 11,4 C 96 % 1015,0 hPa 0,0 l/m 1,1 km/h (1 Bft) W 271 10,8 C 11,4 C 6,5 km/h (2 Bft) 100 %
22.06.2021 03:40 11,3 C 96 % 1014,8 hPa 0,2 l/m 0,9 km/h (0 Bft) W 271 10,7 C 11,3 C 6,5 km/h (2 Bft) 100 %
22.06.2021 03:30 11,2 C 96 % 1015,0 hPa 0,0 l/m 0,0 km/h (0 Bft) W 269 10,6 C 11,2 C 2,2 km/h (1 Bft) 99 %
22.06.2021 03:20 11,1 C 96 % 1015,0 hPa 0,0 l/m 0,0 km/h (0 Bft) W 269 10,5 C 11,1 C 0,0 km/h (0 Bft) 99 %
22.06.2021 03:10 11,0 C 96 % 1015,3 hPa 0,0 l/m 0,1 km/h (0 Bft) W 269 10,4 C 11,0 C 2,2 km/h (1 Bft) 100 %
22.06.2021 03:00 10,9 C 96 % 1015,1 hPa 0,2 l/m 1,1 km/h (1 Bft) W 269 10,3 C 10,9 C 6,5 km/h (2 Bft) 100 %
22.06.2021 02:50 10,7 C 96 % 1015,1 hPa 0,0 l/m 1,3 km/h (1 Bft) W 269 10,1 C 10,7 C 4,3 km/h (1 Bft) 100 %
22.06.2021 02:40 10,4 C 95 % 1015,0 hPa 0,0 l/m 0,0 km/h (0 Bft) W 269 9,6 C 10,4 C 0,0 km/h (0 Bft) 98 %
22.06.2021 02:30 10,4 C 95 % 1014,8 hPa 0,2 l/m 0,0 km/h (0 Bft) W 269 9,6 C 10,4 C 0,0 km/h (0 Bft) 100 %
22.06.2021 02:20 10,5 C 95 % 1014,7 hPa 0,0 l/m 0,0 km/h (0 Bft) W 269 9,7 C 10,5 C 0,0 km/h (0 Bft) 99 %
22.06.2021 02:10 10,7 C 95 % 1014,6 hPa 0,0 l/m 2,1 km/h (1 Bft) W 269 9,9 C 10,7 C 6,5 km/h (2 Bft) 100 %
22.06.2021 02:00 10,8 C 95 % 1014,4 hPa 0,0 l/m 0,0 km/h (0 Bft) W 269 10,0 C 10,8 C 2,2 km/h (1 Bft) 99 %
22.06.2021 01:50 10,9 C 95 % 1014,4 hPa 0,2 l/m 0,3 km/h (0 Bft) W 269 10,1 C 10,9 C 4,3 km/h (1 Bft) 100 %
22.06.2021 01:40 11,0 C 95 % 1014,3 hPa 0,0 l/m 0,8 km/h (0 Bft) W 269 10,2 C 11,0 C 4,3 km/h (1 Bft) 100 %
22.06.2021 01:30 11,1 C 95 % 1014,4 hPa 0,2 l/m 0,6 km/h (0 Bft) W 269 10,3 C 11,1 C 4,3 km/h (1 Bft) 100 %
22.06.2021 01:20 11,2 C 95 % 1014,6 hPa 0,0 l/m 1,4 km/h (1 Bft) W 269 10,4 C 11,2 C 6,5 km/h (2 Bft) 99 %
22.06.2021 01:10 11,3 C 95 % 1014,8 hPa 0,0 l/m 2,6 km/h (1 Bft) W 269 10,5 C 11,3 C 6,5 km/h (2 Bft) 99 %
22.06.2021 01:00 11,3 C 95 % 1014,9 hPa 0,2 l/m 1,0 km/h (0 Bft) W 269 10,5 C 11,3 C 6,5 km/h (2 Bft) 99 %
22.06.2021 00:50 11,4 C 95 % 1015,0 hPa 0,0 l/m 0,0 km/h (0 Bft) NW 322 10,6 C 11,4 C 0,0 km/h (0 Bft) 99 %
22.06.2021 00:40 11,5 C 94 % 1014,7 hPa 0,2 l/m 0,0 km/h (0 Bft) NW 322 10,6 C 11,5 C 0,0 km/h (0 Bft) 100 %
22.06.2021 00:30 11,5 C 94 % 1014,6 hPa 0,0 l/m 0,0 km/h (0 Bft) NW 322 10,6 C 11,5 C 2,2 km/h (1 Bft) 99 %
22.06.2021 00:20 11,6 C 94 % 1014,5 hPa 0,0 l/m 0,1 km/h (0 Bft) NW 322 10,7 C 11,6 C 2,2 km/h (1 Bft) 99 %
22.06.2021 00:10 11,6 C 94 % 1014,5 hPa 0,2 l/m 0,2 km/h (0 Bft) NW 322 10,7 C 11,6 C 2,2 km/h (1 Bft) 99 %
22.06.2021 00:00 11,8 C 94 % 1014,6 hPa 0,0 l/m 0,4 km/h (0 Bft) NW 322 10,9 C 11,8 C 4,3 km/h (1 Bft) 99 %
21.06.2021 23:50 11,8 C 94 % 1014,4 hPa 0,0 l/m 1,9 km/h (1 Bft) NW 322 10,9 C 11,8 C 10,9 km/h (2 Bft) 99 %
21.06.2021 23:40 11,9 C 94 % 1014,3 hPa 0,2 l/m 2,7 km/h (1 Bft) NW 321 11,0 C 11,9 C 8,7 km/h (2 Bft) 100 %
21.06.2021 23:30 11,9 C 94 % 1014,2 hPa 0,0 l/m 2,2 km/h (1 Bft) N-NW 344 11,0 C 11,9 C 8,7 km/h (2 Bft) 99 %
21.06.2021 23:20 12,0 C 93 % 1014,3 hPa 0,0 l/m 2,5 km/h (1 Bft) N-NW 338 10,9 C 12,0 C 8,7 km/h (2 Bft) 100 %
21.06.2021 23:10 12,1 C 93 % 1014,2 hPa 0,2 l/m 1,0 km/h (0 Bft) NW 317 11,0 C 12,1 C 6,5 km/h (2 Bft) 99 %
21.06.2021 23:00 12,1 C 93 % 1014,2 hPa 0,0 l/m 1,6 km/h (1 Bft) NW 316 11,0 C 12,1 C 6,5 km/h (2 Bft) 99 %
21.06.2021 22:50 12,2 C 93 % 1014,2 hPa 0,2 l/m 1,6 km/h (1 Bft) NW 316 11,1 C 12,2 C 6,5 km/h (2 Bft) 99 %
21.06.2021 22:40 12,3 C 93 % 1014,1 hPa 0,0 l/m 1,5 km/h (1 Bft) NW 316 11,2 C 12,3 C 6,5 km/h (2 Bft) 100 %
21.06.2021 22:30 12,3 C 93 % 1014,0 hPa 0,2 l/m 1,1 km/h (1 Bft) NW 316 11,2 C 12,3 C 6,5 km/h (2 Bft) 99 %
21.06.2021 22:20 12,3 C 93 % 1013,9 hPa 0,0 l/m 1,6 km/h (1 Bft) NW 316 11,2 C 12,3 C 6,5 km/h (2 Bft) 99 %
21.06.2021 22:10 12,3 C 93 % 1014,0 hPa 0,2 l/m 1,2 km/h (1 Bft) NW 316 11,2 C 12,3 C 4,3 km/h (1 Bft) 100 %
21.06.2021 22:00 12,3 C 92 % 1013,7 hPa 0,0 l/m 1,6 km/h (1 Bft) NW 315 11,0 C 12,3 C 6,5 km/h (2 Bft) 99 %
21.06.2021 21:50 12,3 C 92 % 1013,5 hPa 0,2 l/m 2,2 km/h (1 Bft) N-NW 334 11,0 C 12,3 C 6,5 km/h (2 Bft) 98 %
21.06.2021 21:40 12,4 C 92 % 1013,3 hPa 0,0 l/m 3,5 km/h (1 Bft) N-NO 15 11,1 C 12,4 C 10,9 km/h (2 Bft) 100 %
21.06.2021 21:30 12,5 C 92 % 1013,1 hPa 0,2 l/m 4,6 km/h (1 Bft) N-NO 15 11,2 C 12,5 C 17,4 km/h (3 Bft) 99 %
21.06.2021 21:20 12,6 C 91 % 1013,1 hPa 0,0 l/m 3,3 km/h (1 Bft) N-NO 13 11,2 C 12,6 C 13,0 km/h (3 Bft) 99 %
21.06.2021 21:10 12,7 C 92 % 1012,9 hPa 0,2 l/m 6,1 km/h (2 Bft) N-NO 20 11,4 C 12,7 C 17,4 km/h (3 Bft) 99 %
21.06.2021 21:00 12,7 C 91 % 1012,7 hPa 0,0 l/m 6,8 km/h (2 Bft) NO 35 11,3 C 12,7 C 21,7 km/h (4 Bft) 100 %
21.06.2021 20:50 12,8 C 91 % 1012,8 hPa 0,2 l/m 8,8 km/h (2 Bft) N 11 11,4 C 12,8 C 23,9 km/h (4 Bft) 99 %
21.06.2021 20:40 13,1 C 92 % 1012,7 hPa 0,0 l/m 8,9 km/h (2 Bft) N-NO 30 11,8 C 13,1 C 23,9 km/h (4 Bft) 99 %
21.06.2021 20:30 13,1 C 93 % 1012,4 hPa 0,2 l/m 11,4 km/h (2 Bft) N-NO 23 12,0 C 13,1 C 28,2 km/h (4 Bft) 100 %
21.06.2021 20:20 13,2 C 93 % 1012,5 hPa 0,2 l/m 9,5 km/h (2 Bft) N-NO 15 12,1 C 13,2 C 21,7 km/h (4 Bft) 99 %
21.06.2021 20:10 13,3 C 94 % 1012,5 hPa 0,0 l/m 9,9 km/h (2 Bft) NO 47 12,4 C 13,3 C 28,2 km/h (4 Bft) 100 %
21.06.2021 20:00 13,4 C 94 % 1012,4 hPa 0,2 l/m 10,6 km/h (2 Bft) N-NW 343 12,5 C 13,4 C 28,2 km/h (4 Bft) 99 %
21.06.2021 19:50 13,4 C 94 % 1012,5 hPa 0,2 l/m 7,7 km/h (2 Bft) N-NO 17 12,5 C 13,4 C 19,6 km/h (3 Bft) 99 %
21.06.2021 19:40 13,3 C 94 % 1012,3 hPa 0,0 l/m 9,5 km/h (2 Bft) N-NW 329 12,4 C 13,3 C 23,9 km/h (4 Bft) 99 %
21.06.2021 19:30 13,4 C 94 % 1012,1 hPa 0,2 l/m 10,1 km/h (2 Bft) NO 44 12,5 C 13,4 C 28,2 km/h (4 Bft) 100 %
21.06.2021 19:20 13,6 C 94 % 1012,1 hPa 0,2 l/m 8,0 km/h (2 Bft) N-NO 24 12,7 C 13,6 C 21,7 km/h (4 Bft) 99 %
21.06.2021 19:10 13,7 C 94 % 1012,0 hPa 0,0 l/m 6,1 km/h (2 Bft) N-NO 15 12,8 C 13,7 C 21,7 km/h (4 Bft) 100 %
21.06.2021 19:00 13,6 C 94 % 1012,1 hPa 0,2 l/m 7,8 km/h (2 Bft) N-NW 343 12,7 C 13,6 C 23,9 km/h (4 Bft) 99 %
21.06.2021 18:50 13,6 C 95 % 1012,0 hPa 0,2 l/m 10,7 km/h (2 Bft) NW 325 12,8 C 13,6 C 28,2 km/h (4 Bft) 99 %
21.06.2021 18:40 13,6 C 95 % 1011,9 hPa 0,2 l/m 8,3 km/h (2 Bft) NW 326 12,8 C 13,6 C 28,2 km/h (4 Bft) 100 %
21.06.2021 18:30 13,5 C 95 % 1011,9 hPa 0,0 l/m 9,1 km/h (2 Bft) N-NW 340 12,7 C 13,5 C 21,7 km/h (4 Bft) 100 %
21.06.2021 18:20 13,6 C 95 % 1011,8 hPa 0,2 l/m 6,3 km/h (2 Bft) NW 308 12,8 C 13,6 C 19,6 km/h (3 Bft) 99 %
21.06.2021 18:10 13,4 C 96 % 1011,8 hPa 0,2 l/m 11,0 km/h (2 Bft) N 355 12,8 C 13,4 C 26,1 km/h (4 Bft) 100 %
21.06.2021 18:00 13,3 C 95 % 1011,5 hPa 0,2 l/m 11,9 km/h (2 Bft) N-NO 19 12,5 C 13,3 C 30,4 km/h (5 Bft) 99 %
21.06.2021 17:50 13,5 C 96 % 1011,3 hPa 0,0 l/m 11,3 km/h (2 Bft) N-NO 18 12,9 C 13,5 C 30,4 km/h (5 Bft) 100 %
21.06.2021 17:40 13,6 C 96 % 1011,0 hPa 0,2 l/m 9,1 km/h (2 Bft) N-NW 341 13,0 C 13,6 C 23,9 km/h (4 Bft) 98 %
21.06.2021 17:30 13,4 C 96 % 1010,9 hPa 0,2 l/m 12,3 km/h (3 Bft) N-NO 23 12,8 C 13,4 C 32,6 km/h (5 Bft) 100 %
21.06.2021 17:20 13,4 C 96 % 1011,0 hPa 0,2 l/m 10,2 km/h (2 Bft) N-NW 339 12,8 C 13,4 C 32,6 km/h (5 Bft) 100 %
21.06.2021 17:10 13,5 C 96 % 1010,8 hPa 0,2 l/m 8,7 km/h (2 Bft) W 275 12,9 C 13,5 C 26,1 km/h (4 Bft) 100 %
21.06.2021 17:00 13,5 C 96 % 1010,7 hPa 0,2 l/m 10,1 km/h (2 Bft) NW 321 12,9 C 13,5 C 26,1 km/h (4 Bft) 100 %
21.06.2021 16:50 13,6 C 96 % 1010,5 hPa 0,2 l/m 11,1 km/h (2 Bft) N-NW 341 13,0 C 13,6 C 26,1 km/h (4 Bft) 99 %
21.06.2021 16:40 13,7 C 96 % 1010,3 hPa 0,2 l/m 6,8 km/h (2 Bft) NW 311 13,1 C 13,7 C 19,6 km/h (3 Bft) 100 %
21.06.2021 16:30 13,7 C 96 % 1010,3 hPa 0,2 l/m 6,9 km/h (2 Bft) W-NW 302 13,1 C 13,7 C 19,6 km/h (3 Bft) 99 %
21.06.2021 16:20 13,7 C 96 % 1010,1 hPa 0,0 l/m 10,5 km/h (2 Bft) O-NO 63 13,1 C 13,7 C 28,2 km/h (4 Bft) 99 %
21.06.2021 16:10 13,7 C 96 % 1010,0 hPa 0,2 l/m 8,6 km/h (2 Bft) N 355 13,1 C 13,7 C 21,7 km/h (4 Bft) 100 %
21.06.2021 16:00 13,7 C 96 % 1009,8 hPa 0,2 l/m 8,5 km/h (2 Bft) NW 316 13,1 C 13,7 C 32,6 km/h (5 Bft) 98 %
21.06.2021 15:50 13,8 C 96 % 1009,6 hPa 0,2 l/m 12,5 km/h (3 Bft) N-NO 17 13,2 C 13,8 C 23,9 km/h (4 Bft) 100 %
21.06.2021 15:40 13,9 C 96 % 1009,4 hPa 0,2 l/m 13,3 km/h (3 Bft) NO 34 13,3 C 13,9 C 30,4 km/h (5 Bft) 100 %
21.06.2021 15:30 14,0 C 96 % 1009,3 hPa 0,2 l/m 10,2 km/h (2 Bft) W-NW 303 13,4 C 14,0 C 23,9 km/h (4 Bft) 99 %
21.06.2021 15:20 14,1 C 96 % 1009,3 hPa 0,2 l/m 6,7 km/h (2 Bft) W 281 13,5 C 14,1 C 21,7 km/h (4 Bft) 100 %
21.06.2021 15:10 14,0 C 96 % 1009,2 hPa 0,2 l/m 7,4 km/h (2 Bft) N 355 13,4 C 14,0 C 23,9 km/h (4 Bft) 100 %
21.06.2021 15:00 13,9 C 96 % 1009,0 hPa 0,2 l/m 7,2 km/h (2 Bft) N 351 13,3 C 13,9 C 21,7 km/h (4 Bft) 99 %
21.06.2021 14:50 13,8 C 96 % 1008,9 hPa 0,2 l/m 7,2 km/h (2 Bft) NW 313 13,2 C 13,8 C 21,7 km/h (4 Bft) 98 %
21.06.2021 14:40 13,8 C 96 % 1008,6 hPa 0,2 l/m 10,5 km/h (2 Bft) N 9 13,2 C 13,8 C 26,1 km/h (4 Bft) 99 %
21.06.2021 14:30 13,7 C 96 % 1008,4 hPa 0,2 l/m 11,7 km/h (2 Bft) N 9 13,1 C 13,7 C 28,2 km/h (4 Bft) 100 %
21.06.2021 14:20 13,7 C 96 % 1008,3 hPa 0,2 l/m 8,2 km/h (2 Bft) NO 42 13,1 C 13,7 C 21,7 km/h (4 Bft) 98 %
21.06.2021 14:10 13,7 C 96 % 1008,3 hPa 0,2 l/m 13,0 km/h (3 Bft) N 9 13,1 C 13,7 C 30,4 km/h (5 Bft) 100 %
21.06.2021 14:00 13,7 C 96 % 1008,1 hPa 0,2 l/m 12,4 km/h (3 Bft) N 355 13,1 C 13,7 C 34,8 km/h (5 Bft) 97 %
21.06.2021 13:50 13,8 C 96 % 1008,1 hPa 0,2 l/m 8,7 km/h (2 Bft) N-NW 330 13,2 C 13,8 C 26,1 km/h (4 Bft) 100 %
21.06.2021 13:40 13,9 C 96 % 1007,9 hPa 0,2 l/m 10,9 km/h (2 Bft) O-NO 67 13,3 C 13,9 C 26,1 km/h (4 Bft) 99 %
21.06.2021 13:30 13,9 C 96 % 1007,8 hPa 0,2 l/m 14,5 km/h (3 Bft) NO 39 13,3 C 13,9 C 30,4 km/h (5 Bft) 99 %
21.06.2021 13:20 14,1 C 96 % 1007,8 hPa 0,2 l/m 11,1 km/h (2 Bft) N 355 13,5 C 14,1 C 28,2 km/h (4 Bft) 100 %
21.06.2021 13:10 14,1 C 96 % 1007,7 hPa 0,4 l/m 12,2 km/h (2 Bft) O-NO 74 13,5 C 14,1 C 30,4 km/h (5 Bft) 99 %
21.06.2021 13:00 14,2 C 96 % 1007,8 hPa 0,0 l/m 9,6 km/h (2 Bft) N 9 13,6 C 14,2 C 26,1 km/h (4 Bft) 98 %
21.06.2021 12:50 14,2 C 96 % 1007,7 hPa 0,4 l/m 12,5 km/h (3 Bft) NO 37 13,6 C 14,2 C 28,2 km/h (4 Bft) 100 %
21.06.2021 12:40 14,2 C 96 % 1007,6 hPa 0,2 l/m 8,7 km/h (2 Bft) N-NO 14 13,6 C 14,2 C 28,2 km/h (4 Bft) 99 %
21.06.2021 12:30 14,3 C 96 % 1007,4 hPa 0,2 l/m 9,0 km/h (2 Bft) NO 38 13,7 C 14,3 C 23,9 km/h (4 Bft) 99 %
21.06.2021 12:20 14,3 C 96 % 1007,3 hPa 0,2 l/m 8,5 km/h (2 Bft) N-NO 13 13,7 C 14,3 C 23,9 km/h (4 Bft) 99 %
21.06.2021 12:10 14,2 C 96 % 1007,2 hPa 0,2 l/m 8,5 km/h (2 Bft) N 350 13,6 C 14,2 C 21,7 km/h (4 Bft) 99 %
21.06.2021 12:00 14,2 C 96 % 1007,2 hPa 0,2 l/m 5,5 km/h (1 Bft) N-NO 25 13,6 C 14,2 C 15,2 km/h (3 Bft) 99 %
21.06.2021 11:50 14,1 C 96 % 1007,2 hPa 0,4 l/m 4,5 km/h (1 Bft) N-NW 327 13,5 C 14,1 C 15,2 km/h (3 Bft) 100 %
21.06.2021 11:40 14,1 C 96 % 1007,0 hPa 0,2 l/m 8,1 km/h (2 Bft) NW 315 13,5 C 14,1 C 26,1 km/h (4 Bft) 100 %
21.06.2021 11:30 14,1 C 96 % 1006,8 hPa 0,2 l/m 9,1 km/h (2 Bft) N-NO 29 13,5 C 14,1 C 21,7 km/h (4 Bft) 100 %
21.06.2021 11:20 14,1 C 96 % 1006,7 hPa 0,2 l/m 7,9 km/h (2 Bft) N-NO 19 13,5 C 14,1 C 19,6 km/h (3 Bft) 100 %
21.06.2021 11:10 14,1 C 96 % 1006,7 hPa 0,2 l/m 11,0 km/h (2 Bft) N-NO 31 13,5 C 14,1 C 23,9 km/h (4 Bft) 100 %
21.06.2021 11:00 14,1 C 96 % 1006,5 hPa 0,2 l/m 11,7 km/h (2 Bft) N-NO 26 13,5 C 14,1 C 26,1 km/h (4 Bft) 99 %
21.06.2021 10:50 14,0 C 96 % 1006,5 hPa 0,4 l/m 11,6 km/h (2 Bft) N-NW 346 13,4 C 14,0 C 32,6 km/h (5 Bft) 100 %
21.06.2021 10:40 13,9 C 96 % 1006,4 hPa 0,2 l/m 11,4 km/h (2 Bft) N-NO 15 13,3 C 13,9 C 26,1 km/h (4 Bft) 99 %
21.06.2021 10:30 13,9 C 96 % 1006,5 hPa 0,2 l/m 10,3 km/h (2 Bft) N-NO 30 13,3 C 13,9 C 28,2 km/h (4 Bft) 99 %
21.06.2021 10:20 13,8 C 96 % 1006,5 hPa 0,2 l/m 11,7 km/h (2 Bft) N-NO 30 13,2 C 13,8 C 28,2 km/h (4 Bft) 99 %
21.06.2021 10:10 13,8 C 96 % 1006,5 hPa 0,2 l/m 14,3 km/h (3 Bft) N-NO 26 13,2 C 13,8 C 32,6 km/h (5 Bft) 99 %
21.06.2021 10:00 13,8 C 96 % 1006,5 hPa 0,4 l/m 10,9 km/h (2 Bft) N-NO 21 13,2 C 13,8 C 30,4 km/h (5 Bft) 99 %
21.06.2021 09:50 13,8 C 96 % 1006,6 hPa 0,2 l/m 9,2 km/h (2 Bft) NO 37 13,2 C 13,8 C 19,6 km/h (3 Bft) 99 %
21.06.2021 09:40 13,8 C 96 % 1006,6 hPa 0,2 l/m 8,3 km/h (2 Bft) NO 44 13,2 C 13,8 C 21,7 km/h (4 Bft) 99 %
21.06.2021 09:30 13,8 C 96 % 1006,4 hPa 0,2 l/m 11,0 km/h (2 Bft) NO 36 13,2 C 13,8 C 30,4 km/h (5 Bft) 99 %
21.06.2021 09:20 13,8 C 96 % 1006,4 hPa 0,4 l/m 11,9 km/h (2 Bft) N-NO 19 13,2 C 13,8 C 30,4 km/h (5 Bft) 98 %
21.06.2021 09:10 13,7 C 96 % 1006,6 hPa 0,2 l/m 11,0 km/h (2 Bft) O-NO 73 13,1 C 13,7 C 28,2 km/h (4 Bft) 100 %
21.06.2021 09:00 13,7 C 96 % 1006,7 hPa 0,2 l/m 10,6 km/h (2 Bft) N 9 13,1 C 13,7 C 23,9 km/h (4 Bft) 99 %
_ Min-Zeit 02:30 20:50 09:20 - 00:30 - - 02:30 02:30 00:40 14:00
Minimum _ 10,4 C 91 % 1006,4 hPa - 0,0 km/h (0 Bft) - - 9,6 C 10,4 C 0,0 km/h (0 Bft) 97 %
_ Max-Zeit 12:20 06:20 08:50 09:20 13:30 - - 12:20 12:20 14:00 09:10
Maximum _ 14,3 C 97 % 1016,3 hPa 0,4 l/m 14,5 km/h
NO (3 Bft)
- - 13,7 C 14,3 C 34,8 km/h
N (5 Bft)
100 %
Durchschnitt _ 12,8 C 95 % 1011,7 hPa #18,8 l/m 6,0 km/h (2 Bft) W - 12,0 C 12,8 C 16,4 km/h (3 Bft) 99 %